KOWB/OWB METAR and TAF weather

Enter ICAO airport designator
Station Type Date Time Source
KOWB METAR 2021/09/24 05:56 UTC NOAA

KOWB 240556Z AUTO 15003KT 10SM CLR 11/08 A3007 RMK AO2 SLP184 T01060078 10178 20100 402170083 55000


Station Type Date Time Source
KOWB Decoded METAR 2021/09/24 05:56 UTC NOAA

Owensboro, Owensboro-Daviess County Airport, KY, United States (KOWB) 37-44-24N 087-10-00W
Sep 24, 2021 - 01:56 AM EDT / 2021.09.24 0556 UTC
Wind: from the SSE (150 degrees) at 3 MPH (3 KT):0
Visibility: 10 mile(s):0
Sky conditions: clear
Temperature: 51.1 F (10.6 C)
Dew Point: 46.0 F (7.8 C)
Relative Humidity: 82%
Pressure (altimeter): 30.07 in. Hg (1018 hPa)
Pressure tendency: 0.00 inches (0.0 hPa) lower than three hours ago
ob: KOWB 240556Z AUTO 15003KT 10SM CLR 11/08 A3007 RMK AO2 SLP184 T01060078 10178 20100 402170083 55000
cycle: 6

Station Type Date Time Source
KOWB TAF 2021/09/24 06:22 UTC NOAA

TAF KOWB 240520Z 2406/2506 VRB02KT P6SM SKC
FM241500 21007KT P6SM SKC
FM250000 19005KT P6SM SCT250

Example: see airport list